Time;durP1;ratioP1;P1;durP2;ratioP2;P2;SDS_P1;SDS_P2;PMS_P1;PMS_P2;Temp;Humidity;BMP_temperature;BMP_pressure;BME280_temperature;BME280_humidity;BME280_pressure;Samples;Min_cycle;Max_cycle;Signal;HPM_P1;HPM_P2
2022/10/29 00:00:22;;;;;;;9.37;4.40;;;18.60;72.60;;;;;;4940245;29;20273;-93
2022/10/29 00:02:51;;;;;;;7.13;3.73;;;18.60;72.40;;;;;;4941035;28;20220;-93
2022/10/29 00:05:22;;;;;;;9.97;5.63;;;18.50;72.40;;;;;;4940518;29;20201;-93
2022/10/29 00:07:55;;;;;;;11.83;6.37;;;18.50;72.60;;;;;;4941419;28;20208;-93
2022/10/29 00:10:26;;;;;;;13.53;6.40;;;18.50;72.60;;;;;;4940594;28;20231;-94
2022/10/29 00:12:56;;;;;;;10.33;6.00;;;18.50;72.90;;;;;;4942144;29;20261;-93
2022/10/29 00:15:26;;;;;;;14.20;6.50;;;18.40;73.00;;;;;;4951593;28;20244;-93
2022/10/29 00:17:54;;;;;;;14.50;6.50;;;18.40;73.10;;;;;;4943072;28;20223;-94
2022/10/29 00:20:21;;;;;;;7.77;4.37;;;18.30;73.00;;;;;;4943617;29;20215;-93
2022/10/29 00:22:54;;;;;;;10.17;4.60;;;18.30;73.00;;;;;;4956768;29;20194;-93
2022/10/29 00:25:33;;;;;;;12.67;5.57;;;18.30;73.40;;;;;;4954775;29;20252;-94
2022/10/29 00:28:06;;;;;;;13.87;5.90;;;18.20;73.50;;;;;;4953953;28;20212;-93
2022/10/29 00:30:35;;;;;;;11.43;5.67;;;18.20;73.60;;;;;;4939890;29;20297;-93
2022/10/29 00:33:08;;;;;;;13.40;6.30;;;18.20;73.70;;;;;;4941395;29;20657;-94
2022/10/29 00:35:42;;;;;;;8.47;5.10;;;18.20;73.90;;;;;;4941237;28;20216;-93
2022/10/29 00:38:11;;;;;;;13.63;6.10;;;18.10;73.70;;;;;;4943827;28;20305;-94
2022/10/29 00:40:55;;;;;;;10.33;5.70;;;18.10;73.70;;;;;;4945288;29;20222;-93
2022/10/29 00:43:31;;;;;;;15.87;6.23;;;18.10;73.90;;;;;;4938490;29;20209;-94
2022/10/29 00:46:04;;;;;;;11.10;4.87;;;18.10;73.90;;;;;;4946518;29;20211;-96
2022/10/29 00:48:37;;;;;;;10.47;5.43;;;18.10;73.90;;;;;;4943827;29;20196;-96
2022/10/29 00:51:10;;;;;;;13.60;5.77;;;18.00;74.00;;;;;;4945166;28;20663;-96
2022/10/29 00:53:48;;;;;;;14.83;6.17;;;18.00;74.20;;;;;;4945175;28;20235;-95
2022/10/29 00:56:17;;;;;;;9.40;4.67;;;18.00;74.40;;;;;;4947263;28;20214;-96
2022/10/29 00:58:54;;;;;;;14.43;6.13;;;18.00;74.20;;;;;;4947596;29;20298;-96
2022/10/29 01:01:25;;;;;;;12.67;5.83;;;18.00;74.40;;;;;;4950317;29;20620;-96
2022/10/29 01:03:58;;;;;;;10.60;5.40;;;17.90;74.10;;;;;;4958708;29;20576;-95
2022/10/29 01:06:37;;;;;;;12.73;4.83;;;17.90;74.70;;;;;;5013546;28;20296;-93
2022/10/29 01:09:08;;;;;;;10.90;5.23;;;17.90;74.70;;;;;;4952483;28;20239;-93
2022/10/29 01:11:53;;;;;;;9.97;4.30;;;17.90;74.70;;;;;;4961243;29;20214;-95
2022/10/29 01:14:36;;;;;;;10.47;4.67;;;17.90;74.70;;;;;;4956365;28;20237;-94
2022/10/29 01:17:24;;;;;;;14.77;6.07;;;17.80;75.20;;;;;;4951804;28;20240;-96
2022/10/29 01:20:48;;;;;;;11.87;5.77;;;17.80;75.50;;;;;;5013749;28;20205;-95
2022/10/29 01:23:40;;;;;;;12.00;5.37;;;17.80;75.90;;;;;;4942353;28;20267;-96
2022/10/29 01:26:45;;;;;;;10.63;4.73;;;17.80;76.10;;;;;;4943272;29;20219;-94
2022/10/29 01:29:31;;;;;;;9.07;5.13;;;17.70;76.20;;;;;;4942857;28;20318;-96
2022/10/29 01:32:12;;;;;;;13.10;5.67;;;17.70;76.10;;;;;;4942544;29;20202;-94
2022/10/29 01:34:47;;;;;;;13.50;6.37;;;17.70;76.20;;;;;;4940873;28;20215;-94
2022/10/29 01:37:33;;;;;;;8.40;4.43;;;17.70;76.00;;;;;;4941556;28;20241;-95
2022/10/29 01:40:10;;;;;;;7.50;4.70;;;17.70;76.50;;;;;;4944298;29;20203;-96
2022/10/29 01:42:43;;;;;;;11.97;5.63;;;17.70;76.50;;;;;;4941423;28;20300;-96
2022/10/29 01:45:19;;;;;;;12.80;6.00;;;17.70;76.40;;;;;;4948592;28;20282;-95
2022/10/29 01:47:55;;;;;;;7.53;4.50;;;17.60;76.90;;;;;;5018158;28;20222;-95
2022/10/29 01:50:35;;;;;;;10.10;4.90;;;17.60;76.80;;;;;;4943470;28;20213;-95
2022/10/29 01:53:08;;;;;;;12.17;6.03;;;17.60;77.20;;;;;;4958946;28;20206;-94
2022/10/29 01:55:46;;;;;;;12.83;6.00;;;17.70;77.10;;;;;;4941569;29;20207;-95
2022/10/29 01:58:18;;;;;;;10.63;5.43;;;17.60;77.10;;;;;;4946234;28;20225;-95
2022/10/29 02:01:01;;;;;;;8.93;5.07;;;17.70;77.20;;;;;;4944830;28;20221;-94
2022/10/29 02:03:50;;;;;;;13.13;5.50;;;17.60;77.70;;;;;;5011100;28;20942;-96
2022/10/29 02:06:38;;;;;;;8.33;4.80;;;17.60;78.00;;;;;;5017775;28;20204;-94
2022/10/29 02:09:23;;;;;;;9.63;4.97;;;17.60;77.80;;;;;;4958810;29;20228;-96
2022/10/29 02:11:59;;;;;;;7.77;4.70;;;17.60;78.10;;;;;;4953500;29;20210;-95
2022/10/29 02:14:35;;;;;;;10.83;5.07;;;17.60;78.00;;;;;;5008193;28;20213;-95
2022/10/29 02:17:06;;;;;;;13.37;5.97;;;17.60;78.70;;;;;;4940620;28;20213;-94
2022/10/29 02:19:42;;;;;;;12.47;5.50;;;17.60;78.60;;;;;;4939723;29;20202;-94
2022/10/29 02:22:12;;;;;;;9.27;5.00;;;17.60;79.40;;;;;;4948991;28;20239;-95
2022/10/29 02:24:39;;;;;;;11.90;6.43;;;17.60;78.70;;;;;;4947672;28;20212;-94
2022/10/29 02:27:09;;;;;;;10.30;4.60;;;17.60;78.70;;;;;;4957023;29;20203;-94
2022/10/29 02:29:39;;;;;;;11.97;4.63;;;17.60;79.00;;;;;;4948422;28;20270;-95
2022/10/29 02:32:10;;;;;;;8.13;4.13;;;17.60;78.90;;;;;;4956795;29;20204;-96
2022/10/29 02:34:41;;;;;;;9.73;5.33;;;17.60;79.20;;;;;;4951333;28;20214;-95
2022/10/29 02:37:11;;;;;;;11.23;5.27;;;17.70;79.70;;;;;;4944514;29;20205;-95
2022/10/29 02:39:41;;;;;;;12.80;5.67;;;17.70;79.90;;;;;;4952861;29;20220;-95
2022/10/29 02:42:10;;;;;;;10.27;5.77;;;17.70;80.00;;;;;;4948080;29;20218;-95
2022/10/29 02:44:50;;;;;;;8.30;4.53;;;17.70;80.00;;;;;;4955906;29;20324;-96
2022/10/29 02:47:22;;;;;;;9.13;4.40;;;17.70;80.60;;;;;;4966248;28;20216;-96
2022/10/29 02:49:55;;;;;;;8.87;5.10;;;17.70;80.50;;;;;;4965769;29;20213;-95
2022/10/29 02:55:14;;;;;;;16.57;6.77;;;17.70;80.90;;;;;;4958195;28;20208;-95
2022/10/29 02:57:44;;;;;;;10.90;5.20;;;17.80;81.00;;;;;;4965335;28;20236;-96
2022/10/29 03:00:19;;;;;;;9.60;4.87;;;17.80;80.80;;;;;;4957126;28;20209;-95
2022/10/29 03:02:58;;;;;;;12.23;5.50;;;17.80;81.00;;;;;;4947712;28;20208;-96
2022/10/29 03:05:43;;;;;;;14.20;5.77;;;17.80;80.80;;;;;;4960309;29;20218;-95
2022/10/29 03:08:23;;;;;;;14.40;6.67;;;17.80;81.20;;;;;;4960734;28;20229;-95
2022/10/29 03:10:55;;;;;;;14.67;5.60;;;17.80;81.00;;;;;;4946524;28;20217;-95
2022/10/29 03:13:29;;;;;;;14.83;6.83;;;17.90;80.90;;;;;;4948112;29;20201;-96
2022/10/29 03:15:58;;;;;;;10.00;5.37;;;17.90;81.20;;;;;;4946794;28;20221;-95
2022/10/29 03:18:27;;;;;;;16.63;6.33;;;17.90;80.90;;;;;;4956700;28;20226;-95
2022/10/29 03:20:58;;;;;;;12.57;5.93;;;18.00;81.50;;;;;;4963359;28;20212;-95
2022/10/29 03:23:29;;;;;;;14.87;7.17;;;17.90;81.50;;;;;;4943665;29;20662;-95
2022/10/29 03:26:00;;;;;;;12.50;6.00;;;18.00;81.60;;;;;;4944595;28;20289;-94
2022/10/29 03:28:32;;;;;;;14.20;7.23;;;18.00;81.40;;;;;;4957371;28;20650;-94
2022/10/29 03:31:02;;;;;;;11.90;5.90;;;18.00;81.40;;;;;;4961573;28;20589;-95
2022/10/29 03:33:35;;;;;;;12.80;6.73;;;18.00;81.70;;;;;;4960911;29;20224;-95
2022/10/29 03:36:17;;;;;;;11.00;6.47;;;18.00;81.90;;;;;;4942395;28;20289;-95
2022/10/29 03:38:46;;;;;;;19.10;7.97;;;18.00;82.20;;;;;;4954005;28;20230;-94
2022/10/29 03:41:20;;;;;;;9.87;5.33;;;18.10;81.50;;;;;;4950897;28;20207;-94
2022/10/29 03:43:51;;;;;;;14.20;5.87;;;18.10;82.00;;;;;;4942109;29;20210;-95
2022/10/29 03:46:33;;;;;;;10.40;5.53;;;18.00;81.60;;;;;;4949573;29;20264;-94
2022/10/29 03:49:03;;;;;;;9.57;5.10;;;18.10;82.20;;;;;;4944993;28;20216;-95
2022/10/29 03:51:43;;;;;;;9.67;5.60;;;18.10;81.70;;;;;;4942022;29;20927;-95
2022/10/29 03:54:11;;;;;;;11.73;5.90;;;18.10;82.10;;;;;;4947947;28;20216;-94
2022/10/29 03:56:39;;;;;;;12.10;6.10;;;18.10;81.50;;;;;;4966691;28;20562;-94
2022/10/29 03:59:14;;;;;;;12.37;6.13;;;18.10;82.10;;;;;;4943251;28;20330;-94
2022/10/29 04:01:44;;;;;;;10.70;5.53;;;18.10;81.20;;;;;;4941929;28;20668;-94
2022/10/29 04:04:15;;;;;;;13.03;6.63;;;18.20;81.50;;;;;;4951986;28;20199;-94
2022/10/29 04:06:46;;;;;;;11.27;5.60;;;18.10;81.60;;;;;;4947173;29;20198;-94
2022/10/29 04:09:24;;;;;;;11.00;4.93;;;18.10;81.70;;;;;;4945464;29;20256;-95
2022/10/29 04:11:57;;;;;;;10.50;5.47;;;18.10;81.50;;;;;;4962146;28;20205;-95
2022/10/29 04:14:28;;;;;;;8.90;5.20;;;18.20;82.00;;;;;;4942423;29;20204;-93
2022/10/29 04:17:04;;;;;;;13.13;5.50;;;18.20;81.90;;;;;;4944200;28;20215;-93
2022/10/29 04:19:36;;;;;;;11.73;5.40;;;18.20;82.30;;;;;;4950702;29;20722;-94
2022/10/29 04:22:16;;;;;;;6.83;5.30;;;18.10;81.90;;;;;;4941451;29;20239;-95
2022/10/29 04:24:48;;;;;;;10.63;5.23;;;18.20;82.30;;;;;;4944191;28;20225;-92
2022/10/29 04:27:17;;;;;;;15.03;7.17;;;18.20;82.10;;;;;;4987398;28;20210;-94
2022/10/29 04:30:04;;;;;;;8.67;5.10;;;18.20;82.20;;;;;;4957639;28;20213;-94
2022/10/29 04:32:35;;;;;;;10.43;5.50;;;18.20;83.20;;;;;;4960140;28;20206;-94
2022/10/29 04:35:15;;;;;;;10.30;5.97;;;18.20;82.20;;;;;;4940842;28;20237;-95
2022/10/29 04:38:02;;;;;;;14.00;6.80;;;18.20;83.80;;;;;;4954774;29;20239;-94
2022/10/29 04:40:37;;;;;;;11.97;5.70;;;18.20;83.40;;;;;;4947934;28;20336;-94
2022/10/29 04:43:14;;;;;;;13.07;6.40;;;18.20;83.10;;;;;;4944713;29;20241;-95
2022/10/29 04:45:52;;;;;;;11.57;6.83;;;18.30;83.40;;;;;;4942506;28;20218;-96
2022/10/29 04:48:23;;;;;;;12.27;6.33;;;18.30;83.30;;;;;;4939945;29;20253;-94
2022/10/29 04:54:00;;;;;;;14.00;5.90;;;18.30;84.30;;;;;;4967148;28;20199;-95
2022/10/29 04:56:30;;;;;;;11.57;6.17;;;18.30;83.80;;;;;;4968483;28;20221;-95
2022/10/29 04:59:07;;;;;;;19.13;6.90;;;18.30;83.60;;;;;;4954611;28;20250;-95
2022/10/29 05:01:36;;;;;;;12.07;5.40;;;18.40;84.60;;;;;;5012937;28;20210;-94
2022/10/29 05:04:08;;;;;;;13.37;6.17;;;18.40;84.50;;;;;;4948667;29;20269;-95
2022/10/29 05:06:46;;;;;;;17.80;7.33;;;18.40;84.50;;;;;;4956515;28;20355;-94
2022/10/29 05:09:48;;;;;;;13.10;6.83;;;18.40;84.60;;;;;;5006105;28;20211;-95
2022/10/29 05:12:46;;;;;;;13.70;6.03;;;18.50;85.40;;;;;;4946718;29;20666;-95
2022/10/29 05:15:25;;;;;;;13.77;6.37;;;18.50;85.30;;;;;;5004323;28;20204;-94
2022/10/29 05:17:57;;;;;;;10.70;5.67;;;18.50;85.00;;;;;;4945982;28;20230;-94
2022/10/29 05:20:41;;;;;;;11.70;5.33;;;18.50;85.00;;;;;;5021005;28;20223;-95
2022/10/29 05:23:14;;;;;;;9.87;4.90;;;18.50;85.50;;;;;;4946234;28;20218;-94
2022/10/29 05:25:50;;;;;;;15.50;7.37;;;18.50;85.70;;;;;;4944080;29;20211;-94
2022/10/29 05:28:19;;;;;;;13.73;6.77;;;18.50;86.10;;;;;;4941293;29;20234;-94
2022/10/29 05:30:50;;;;;;;14.43;6.07;;;18.60;86.30;;;;;;4961380;29;20221;-95
2022/10/29 05:33:19;;;;;;;12.23;6.30;;;18.60;86.40;;;;;;4952160;28;20207;-96
2022/10/29 05:35:59;;;;;;;15.93;6.87;;;18.60;86.20;;;;;;4952412;29;20207;-94
2022/10/29 05:41:59;;;;;;;14.40;5.70;;;18.60;87.10;;;;;;4964315;28;20208;-95
2022/10/29 05:44:32;;;;;;;15.20;6.47;;;18.60;87.30;;;;;;5039581;28;20192;-95
2022/10/29 05:47:15;;;;;;;16.37;7.13;;;18.70;86.50;;;;;;5053875;28;20324;-94
2022/10/29 05:49:44;;;;;;;14.67;6.60;;;18.70;86.80;;;;;;5058307;28;20210;-94
2022/10/29 05:52:15;;;;;;;17.47;7.80;;;18.70;86.30;;;;;;5012939;28;20216;-95
2022/10/29 05:55:10;;;;;;;13.63;6.53;;;18.60;86.10;;;;;;4947735;28;20666;-96
2022/10/29 05:57:56;;;;;;;15.83;6.70;;;18.70;86.60;;;;;;4943740;28;20572;-95
2022/10/29 06:00:38;;;;;;;11.50;6.57;;;18.70;86.50;;;;;;4944785;28;20248;-95
2022/10/29 06:03:18;;;;;;;13.73;6.23;;;18.70;86.30;;;;;;4957635;29;20242;-95
2022/10/29 06:06:11;;;;;;;12.80;6.03;;;18.70;86.40;;;;;;4946808;28;20225;-96
2022/10/29 06:08:46;;;;;;;17.03;7.83;;;18.70;86.40;;;;;;5013087;28;20215;-96
2022/10/29 06:14:25;;;;;;;17.53;7.37;;;18.70;86.30;;;;;;5014432;28;20226;-95
2022/10/29 06:17:36;;;;;;;14.13;6.27;;;18.70;86.30;;;;;;4941746;29;20633;-95
2022/10/29 06:20:19;;;;;;;16.93;6.57;;;18.80;86.60;;;;;;5006951;28;20234;-95
2022/10/29 06:25:45;;;;;;;15.77;6.83;;;18.80;86.40;;;;;;4941726;28;20216;-95
2022/10/29 06:28:17;;;;;;;15.03;7.30;;;18.80;86.20;;;;;;5006105;28;20229;-96
2022/10/29 06:30:59;;;;;;;13.10;7.23;;;18.70;86.30;;;;;;4935957;28;20215;-95
2022/10/29 06:33:30;;;;;;;16.23;7.33;;;18.80;87.10;;;;;;4941957;28;20254;-95
2022/10/29 06:36:00;;;;;;;14.30;6.33;;;18.80;86.80;;;;;;4938823;28;20571;-93
2022/10/29 06:38:31;;;;;;;16.20;7.50;;;18.80;86.60;;;;;;4936224;28;20208;-95
2022/10/29 06:41:01;;;;;;;14.07;6.53;;;18.80;87.20;;;;;;4952058;28;20226;-96
2022/10/29 06:43:33;;;;;;;21.23;8.27;;;18.80;86.80;;;;;;4944982;28;20644;-95
2022/10/29 06:46:15;;;;;;;18.63;8.40;;;18.80;87.60;;;;;;4946026;29;20228;-94
2022/10/29 06:48:50;;;;;;;17.03;7.93;;;18.80;87.60;;;;;;4938000;29;20210;-96
2022/10/29 06:51:39;;;;;;;15.93;7.50;;;18.80;87.90;;;;;;4946465;28;20610;-95
2022/10/29 06:54:19;;;;;;;13.30;6.83;;;18.80;88.30;;;;;;4946403;29;20863;-94
2022/10/29 06:56:57;;;;;;;16.70;7.43;;;18.80;87.60;;;;;;4937726;29;20857;-94
2022/10/29 06:59:31;;;;;;;12.53;5.93;;;18.80;88.20;;;;;;4950926;28;20628;-95
2022/10/29 07:02:02;;;;;;;18.43;7.73;;;18.80;88.00;;;;;;4936487;28;20239;-92
2022/10/29 07:04:29;;;;;;;15.97;8.27;;;18.80;88.40;;;;;;4930489;28;20240;-94
2022/10/29 07:06:56;;;;;;;14.20;7.83;;;18.80;88.30;;;;;;4931875;28;20676;-93
2022/10/29 07:09:26;;;;;;;17.60;8.70;;;18.80;88.10;;;;;;4948835;29;20242;-92
2022/10/29 07:11:53;;;;;;;23.17;8.33;;;18.90;89.10;;;;;;4950705;29;20675;-92
2022/10/29 07:14:21;;;;;;;17.03;8.40;;;18.90;88.50;;;;;;4949231;29;20227;-93
2022/10/29 07:16:50;;;;;;;17.50;7.50;;;19.00;89.10;;;;;;4949800;29;20257;-93
2022/10/29 07:19:19;;;;;;;14.67;7.77;;;19.00;89.30;;;;;;4935105;29;20566;-92
2022/10/29 07:21:46;;;;;;;21.47;9.27;;;19.00;89.40;;;;;;4934775;28;20207;-93
2022/10/29 07:24:17;;;;;;;18.77;8.07;;;19.00;89.00;;;;;;4933756;29;20754;-92
2022/10/29 07:26:45;;;;;;;17.30;8.23;;;19.00;89.40;;;;;;4933199;28;20212;-93
2022/10/29 07:29:15;;;;;;;17.33;8.63;;;19.00;89.40;;;;;;4931382;29;20231;-93
2022/10/29 07:31:43;;;;;;;18.43;8.17;;;19.00;89.40;;;;;;4947820;29;20253;-93
2022/10/29 07:34:13;;;;;;;17.80;7.57;;;19.00;89.30;;;;;;4949779;28;20265;-94
2022/10/29 07:36:44;;;;;;;13.77;6.93;;;19.10;90.00;;;;;;4940134;29;20213;-95
2022/10/29 07:39:19;;;;;;;19.43;8.67;;;19.10;90.20;;;;;;4931709;28;20228;-94
2022/10/29 07:41:47;;;;;;;17.83;8.77;;;19.10;90.20;;;;;;4938432;29;20195;-94
2022/10/29 07:44:15;;;;;;;12.63;7.23;;;19.10;90.00;;;;;;4939900;29;20205;-95
2022/10/29 07:46:44;;;;;;;17.20;6.90;;;19.20;90.00;;;;;;4945437;28;20619;-94
2022/10/29 07:49:13;;;;;;;16.33;7.37;;;19.20;90.10;;;;;;4943591;28;20211;-92
2022/10/29 07:51:42;;;;;;;12.50;7.03;;;19.20;90.10;;;;;;4935714;29;20528;-93
2022/10/29 07:54:11;;;;;;;15.87;7.07;;;19.20;90.20;;;;;;4944821;29;20222;-94
2022/10/29 07:56:39;;;;;;;14.67;7.13;;;19.20;90.10;;;;;;4947050;29;20298;-93
2022/10/29 07:59:08;;;;;;;17.43;7.63;;;19.20;90.10;;;;;;4939914;28;20209;-93
2022/10/29 08:01:41;;;;;;;15.53;7.63;;;19.20;90.20;;;;;;4939182;28;20215;-92
2022/10/29 08:04:12;;;;;;;19.70;8.23;;;19.20;90.50;;;;;;4942616;29;20215;-93
2022/10/29 08:06:41;;;;;;;11.40;6.73;;;19.30;90.40;;;;;;4944103;29;20226;-93
2022/10/29 08:09:08;;;;;;;15.97;7.27;;;19.30;90.40;;;;;;4936228;28;20212;-94
2022/10/29 08:11:38;;;;;;;16.10;7.20;;;19.30;90.20;;;;;;4935638;29;20216;-93
2022/10/29 08:14:11;;;;;;;14.10;6.70;;;19.30;90.60;;;;;;4936384;29;20242;-94
2022/10/29 08:16:40;;;;;;;13.17;7.40;;;19.40;90.70;;;;;;4957462;28;20216;-95
2022/10/29 08:19:07;;;;;;;18.67;8.50;;;19.40;90.60;;;;;;4949391;28;20319;-94
2022/10/29 08:21:37;;;;;;;12.00;6.33;;;19.40;90.60;;;;;;4945336;28;20207;-95
2022/10/29 08:24:05;;;;;;;13.53;6.87;;;19.40;90.80;;;;;;4936549;28;20207;-95
2022/10/29 08:26:37;;;;;;;17.03;7.13;;;19.40;90.80;;;;;;4936335;28;20191;-94
2022/10/29 08:29:04;;;;;;;13.60;7.17;;;19.50;91.10;;;;;;4938039;29;20216;-94
2022/10/29 08:31:40;;;;;;;17.10;7.57;;;19.50;90.80;;;;;;4960471;28;20207;-95
2022/10/29 08:34:15;;;;;;;9.50;6.00;;;19.60;90.90;;;;;;4947387;28;20401;-94
2022/10/29 08:36:45;;;;;;;10.33;5.73;;;19.50;91.00;;;;;;4965140;28;20202;-95
2022/10/29 08:39:20;;;;;;;10.73;6.23;;;19.60;90.70;;;;;;4944691;28;20248;-95
2022/10/29 08:42:09;;;;;;;23.83;8.50;;;19.70;90.90;;;;;;4957301;29;20262;-94
2022/10/29 08:45:01;;;;;;;11.23;5.40;;;19.70;91.00;;;;;;4940536;28;20231;-95
2022/10/29 08:47:46;;;;;;;15.93;6.77;;;19.70;90.80;;;;;;4947185;29;20207;-94
2022/10/29 08:53:15;;;;;;;16.03;6.93;;;19.90;90.40;;;;;;4949842;28;20212;-95
2022/10/29 08:55:44;;;;;;;15.40;6.33;;;19.90;90.20;;;;;;4951634;29;20266;-89
2022/10/29 08:58:43;;;;;;;23.50;6.40;;;20.00;90.30;;;;;;4949351;29;20226;-95
2022/10/29 09:01:28;;;;;;;15.83;6.50;;;20.00;90.30;;;;;;4948650;28;20300;-95
2022/10/29 09:04:25;;;;;;;20.30;7.20;;;20.10;90.30;;;;;;5016332;28;20216;-96
2022/10/29 09:07:37;;;;;;;22.20;7.27;;;20.20;90.30;;;;;;4951341;28;20230;-95
2022/10/29 09:10:17;;;;;;;13.83;6.80;;;20.30;90.40;;;;;;4955675;29;20213;-94
2022/10/29 09:13:01;;;;;;;13.97;6.70;;;20.40;90.30;;;;;;4956050;29;20210;-93
2022/10/29 09:15:46;;;;;;;22.77;7.80;;;20.50;90.70;;;;;;4934420;29;20289;-93
2022/10/29 09:18:28;;;;;;;15.00;6.93;;;20.60;90.70;;;;;;4939317;29;20210;-92
2022/10/29 09:21:05;;;;;;;15.43;7.27;;;20.80;90.50;;;;;;4935976;29;20263;-92
2022/10/29 09:23:55;;;;;;;14.27;6.83;;;20.90;90.10;;;;;;4932577;28;20265;-93
2022/10/29 09:26:30;;;;;;;13.03;5.37;;;21.10;89.00;;;;;;4938619;28;20212;-93
2022/10/29 09:29:16;;;;;;;17.50;6.97;;;21.30;88.30;;;;;;4947609;28;20226;-93
2022/10/29 09:31:49;;;;;;;11.20;5.83;;;21.40;86.60;;;;;;4950972;29;20212;-92
2022/10/29 09:34:26;;;;;;;16.20;7.10;;;21.60;86.00;;;;;;4946304;29;20210;-93
2022/10/29 09:36:58;;;;;;;14.30;7.10;;;21.70;85.30;;;;;;4944617;29;20263;-92
2022/10/29 09:39:35;;;;;;;10.77;5.90;;;21.70;84.90;;;;;;4949752;28;20239;-93
2022/10/29 09:42:08;;;;;;;14.43;5.03;;;21.80;84.00;;;;;;4941619;28;20218;-94
2022/10/29 09:44:51;;;;;;;10.53;5.90;;;21.90;84.10;;;;;;4947732;28;20236;-93
2022/10/29 09:47:34;;;;;;;11.47;5.90;;;22.00;84.40;;;;;;4943343;28;20208;-93
2022/10/29 09:50:19;;;;;;;11.33;6.37;;;22.00;83.60;;;;;;5028438;28;20204;-94
2022/10/29 09:52:49;;;;;;;13.23;6.00;;;22.10;84.60;;;;;;4961253;28;20199;-95
2022/10/29 09:55:30;;;;;;;11.10;5.87;;;22.20;84.30;;;;;;4941350;28;20208;-94
2022/10/29 09:57:59;;;;;;;12.83;6.23;;;22.30;83.70;;;;;;4944205;28;20212;-93
2022/10/29 10:00:35;;;;;;;18.27;6.97;;;22.40;84.90;;;;;;4958335;29;20231;-93
2022/10/29 10:03:18;;;;;;;12.83;6.30;;;22.60;83.50;;;;;;4950411;28;20224;-96
2022/10/29 10:06:01;;;;;;;13.90;5.63;;;22.70;83.50;;;;;;4945501;28;20228;-94
2022/10/29 10:08:35;;;;;;;11.20;5.43;;;22.90;82.50;;;;;;4959161;28;20199;-95
2022/10/29 10:11:12;;;;;;;15.00;4.70;;;23.10;82.10;;;;;;4944672;28;20218;-94
2022/10/29 10:13:53;;;;;;;13.60;6.00;;;23.20;80.90;;;;;;4947232;28;20658;-94
2022/10/29 10:16:26;;;;;;;13.47;5.83;;;23.30;80.60;;;;;;4963501;29;20208;-94
2022/10/29 10:18:58;;;;;;;12.80;5.17;;;23.50;79.70;;;;;;4960223;28;20210;-94
2022/10/29 10:21:38;;;;;;;10.13;4.93;;;23.70;78.90;;;;;;4941902;28;20763;-94
2022/10/29 10:24:29;;;;;;;11.17;4.90;;;23.80;79.20;;;;;;4947003;28;20237;-95
2022/10/29 10:27:01;;;;;;;11.60;5.33;;;24.00;77.60;;;;;;4959205;28;20265;-93
2022/10/29 10:29:48;;;;;;;12.40;4.97;;;24.10;77.40;;;;;;4955741;28;20271;-95
2022/10/29 10:32:25;;;;;;;12.47;5.13;;;24.30;75.10;;;;;;5006266;28;20266;-93
2022/10/29 10:35:01;;;;;;;9.70;5.00;;;24.50;74.20;;;;;;4950234;28;20599;-94
2022/10/29 10:37:36;;;;;;;8.73;5.47;;;24.70;74.40;;;;;;4955781;29;20199;-93
2022/10/29 10:40:23;;;;;;;10.43;4.77;;;24.80;73.90;;;;;;4956793;29;20226;-96
2022/10/29 10:42:56;;;;;;;15.23;5.00;;;24.90;73.40;;;;;;4956876;28;20719;-95
2022/10/29 10:45:30;;;;;;;12.53;5.43;;;25.10;72.80;;;;;;4937393;28;20339;-95
2022/10/29 10:47:59;;;;;;;10.23;4.40;;;25.20;72.60;;;;;;4945419;29;20210;-94
2022/10/29 10:50:36;;;;;;;13.53;5.73;;;25.30;72.70;;;;;;4954463;29;20215;-95
2022/10/29 10:53:20;;;;;;;14.80;5.60;;;25.40;71.40;;;;;;4959512;28;20274;-96
2022/10/29 10:55:52;;;;;;;11.27;5.23;;;25.60;71.40;;;;;;4937036;29;20219;-95
2022/10/29 10:58:29;;;;;;;9.07;4.63;;;25.70;71.40;;;;;;4940029;29;20231;-95
2022/10/29 11:01:05;;;;;;;10.47;4.83;;;25.80;70.70;;;;;;4942568;28;20223;-96
2022/10/29 11:03:38;;;;;;;7.63;4.47;;;25.90;70.30;;;;;;4948819;29;20270;-96
2022/10/29 11:06:17;;;;;;;11.63;4.63;;;26.00;70.90;;;;;;4941701;28;20232;-95
2022/10/29 11:08:52;;;;;;;10.47;4.23;;;26.20;70.40;;;;;;4938121;29;20204;-95
2022/10/29 11:11:33;;;;;;;9.77;5.17;;;26.20;69.40;;;;;;4946449;28;20208;-94
2022/10/29 11:14:16;;;;;;;12.00;4.73;;;26.30;68.30;;;;;;4946563;28;20688;-96
2022/10/29 11:16:54;;;;;;;15.77;5.40;;;26.40;68.90;;;;;;4955352;29;20265;-94
2022/10/29 11:19:30;;;;;;;13.80;6.27;;;26.50;69.20;;;;;;4940093;29;20318;-96
2022/10/29 11:22:13;;;;;;;10.83;4.70;;;26.60;68.80;;;;;;4956768;28;20239;-95
2022/10/29 11:24:47;;;;;;;13.17;5.27;;;26.70;68.70;;;;;;4943205;29;20888;-94
2022/10/29 11:27:31;;;;;;;12.47;5.50;;;26.80;68.70;;;;;;4939651;29;20219;-95
2022/10/29 11:30:03;;;;;;;10.53;5.10;;;26.90;68.00;;;;;;4955832;28;20253;-94
2022/10/29 11:32:50;;;;;;;11.10;5.63;;;27.00;68.20;;;;;;4958899;28;20209;-96
2022/10/29 11:35:24;;;;;;;11.70;5.93;;;27.20;67.00;;;;;;4963479;28;20207;-95
2022/10/29 11:38:07;;;;;;;9.97;4.90;;;27.40;67.40;;;;;;4962699;29;20204;-95
2022/10/29 11:40:43;;;;;;;12.37;5.83;;;27.50;67.00;;;;;;4960281;29;20371;-95
2022/10/29 11:43:11;;;;;;;14.70;6.47;;;27.70;66.30;;;;;;4967524;28;20203;-94
2022/10/29 11:45:59;;;;;;;12.07;5.13;;;27.90;66.30;;;;;;4953850;28;20212;-96
2022/10/29 11:48:41;;;;;;;13.27;4.67;;;28.10;64.70;;;;;;4949143;29;20601;-94
2022/10/29 11:51:22;;;;;;;10.00;4.90;;;28.20;64.30;;;;;;4952953;28;20235;-95
2022/10/29 11:54:14;;;;;;;9.27;5.13;;;28.30;63.30;;;;;;4952943;29;20196;-94
2022/10/29 11:56:50;;;;;;;10.63;5.13;;;28.50;62.90;;;;;;4945535;29;20304;-93
2022/10/29 11:59:38;;;;;;;14.10;5.43;;;28.60;60.90;;;;;;4954374;28;20640;-95
2022/10/29 12:02:29;;;;;;;9.30;4.33;;;28.70;61.40;;;;;;4965064;28;20231;-94
2022/10/29 12:05:06;;;;;;;9.07;4.17;;;28.70;60.90;;;;;;4958181;28;20731;-92
2022/10/29 12:07:47;;;;;;;15.70;5.83;;;28.70;60.70;;;;;;4967324;28;20203;-95
2022/10/29 12:10:47;;;;;;;13.33;5.83;;;28.80;59.90;;;;;;4964491;29;20214;-94
2022/10/29 12:13:28;;;;;;;13.73;5.03;;;28.80;59.50;;;;;;4954569;28;20211;-94
2022/10/29 12:16:11;;;;;;;11.87;5.00;;;28.80;60.20;;;;;;4958567;28;20210;-94
2022/10/29 12:18:49;;;;;;;11.03;4.50;;;28.90;59.60;;;;;;4950900;28;20439;-94
2022/10/29 12:21:32;;;;;;;14.17;4.43;;;29.00;59.90;;;;;;4937723;29;20220;-95
2022/10/29 12:24:24;;;;;;;13.40;4.70;;;29.00;59.10;;;;;;4957601;29;20640;-94
2022/10/29 12:27:05;;;;;;;10.50;4.47;;;29.00;59.50;;;;;;4958913;29;20205;-96
2022/10/29 12:29:43;;;;;;;9.70;4.30;;;29.10;60.30;;;;;;4941226;28;20278;-94
2022/10/29 12:32:20;;;;;;;9.53;4.30;;;29.20;59.40;;;;;;4937206;29;20262;-95
2022/10/29 12:34:53;;;;;;;12.60;4.77;;;29.20;58.20;;;;;;4937355;29;20228;-94
2022/10/29 12:37:32;;;;;;;12.43;4.87;;;29.20;58.90;;;;;;4937702;29;20301;-94
2022/10/29 12:40:06;;;;;;;7.53;3.60;;;29.20;58.20;;;;;;4949303;28;20257;-94
2022/10/29 12:42:36;;;;;;;14.80;4.87;;;29.20;58.70;;;;;;4942121;28;20589;-93
2022/10/29 12:45:30;;;;;;;10.80;3.83;;;29.30;57.70;;;;;;4934761;28;20598;-95
2022/10/29 12:48:15;;;;;;;6.97;3.33;;;29.30;57.80;;;;;;4944493;28;20204;-95
2022/10/29 12:51:06;;;;;;;9.27;4.73;;;29.40;57.00;;;;;;4939737;28;20725;-95
2022/10/29 12:53:58;;;;;;;11.37;3.50;;;29.50;56.80;;;;;;4942729;29;20238;-94
2022/10/29 12:56:29;;;;;;;8.53;3.60;;;29.50;57.00;;;;;;4944077;28;20215;-94
2022/10/29 12:59:45;;;;;;;9.80;3.40;;;29.60;56.90;;;;;;4941315;28;20221;-94
2022/10/29 13:02:28;;;;;;;8.93;4.07;;;29.60;56.80;;;;;;4956206;29;20228;-93
2022/10/29 13:05:19;;;;;;;10.43;4.53;;;29.60;56.20;;;;;;4952552;29;20203;-94
2022/10/29 13:08:21;;;;;;;11.40;4.50;;;29.60;56.30;;;;;;4949596;28;20228;-96
2022/10/29 13:10:54;;;;;;;11.70;5.00;;;29.60;54.60;;;;;;4935131;28;20250;-95
2022/10/29 13:13:47;;;;;;;8.27;3.67;;;29.60;56.20;;;;;;4936076;28;20262;-94
2022/10/29 13:16:23;;;;;;;7.70;3.97;;;29.60;56.00;;;;;;4936983;29;20196;-93
2022/10/29 13:19:19;;;;;;;7.73;4.17;;;29.70;56.60;;;;;;4945656;28;20204;-93
2022/10/29 13:22:03;;;;;;;10.40;3.87;;;29.70;55.40;;;;;;4935536;29;20700;-95
2022/10/29 13:24:40;;;;;;;11.63;4.53;;;29.80;55.10;;;;;;4947981;29;20237;-94
2022/10/29 13:27:37;;;;;;;14.87;5.27;;;29.80;56.20;;;;;;4956247;28;20208;-94
2022/10/29 13:30:24;;;;;;;8.30;4.47;;;29.80;55.00;;;;;;4933840;29;20315;-94
2022/10/29 13:32:56;;;;;;;15.03;4.80;;;29.90;55.40;;;;;;4933089;29;20208;-95
2022/10/29 13:35:42;;;;;;;10.10;3.80;;;29.90;55.00;;;;;;4934798;29;20865;-93
2022/10/29 13:38:15;;;;;;;12.67;6.00;;;29.90;54.40;;;;;;4932664;29;20239;-94
2022/10/29 13:41:18;;;;;;;12.33;4.60;;;29.80;54.60;;;;;;4954108;29;20275;-95
2022/10/29 13:44:03;;;;;;;10.50;4.53;;;29.80;54.50;;;;;;4955431;28;20207;-94
2022/10/29 13:46:51;;;;;;;14.00;4.60;;;29.80;53.60;;;;;;5005228;28;20212;-92